Time;durP1;ratioP1;P1;durP2;ratioP2;P2;SDS_P1;SDS_P2;PMS_P1;PMS_P2;Temp;Humidity;BMP_temperature;BMP_pressure;BME280_temperature;BME280_humidity;BME280_pressure;Samples;Min_cycle;Max_cycle;Signal;HPM_P1;HPM_P2
2022/04/07 00:01:09;;;;;;;;;1.00;1.00;;;;;12.52;63.08;99577.38;5035571;28;45246;-71
2022/04/07 00:03:35;;;;;;;;;2.00;0.25;;;;;12.22;63.37;99535.22;5050336;28;45564;-74
2022/04/07 00:06:01;;;;;;;;;1.00;1.00;;;;;12.45;62.94;99567.91;5035892;28;45978;-73
2022/04/07 00:08:28;;;;;;;;;1.00;1.00;;;;;12.62;63.04;99591.97;5036051;28;46860;-70
2022/04/07 00:10:54;;;;;;;;;0.50;0.50;;;;;12.39;62.93;99533.94;5035053;28;45481;-74
2022/04/07 00:13:19;;;;;;;;;1.50;1.00;;;;;12.57;63.27;99569.38;5036663;28;45248;-74
2022/04/07 00:15:45;;;;;;;;;1.00;1.00;;;;;12.52;63.27;99553.72;5037113;28;45523;-73
2022/04/07 00:18:11;;;;;;;;;0.00;0.00;;;;;12.60;62.90;99564.91;5036719;28;45571;-71
2022/04/07 00:20:37;;;;;;;;;1.50;0.25;;;;;12.62;62.89;99551.72;5036310;28;45465;-70
2022/04/07 00:23:03;;;;;;;;;1.00;1.00;;;;;12.64;62.90;99569.19;5037056;28;45345;-70
2022/04/07 00:25:29;;;;;;;;;0.00;0.00;;;;;12.75;62.83;99581.19;5043622;28;45567;-74
2022/04/07 00:27:55;;;;;;;;;1.00;1.00;;;;;12.47;63.26;99529.34;5056601;28;46167;-72
2022/04/07 00:30:21;;;;;;;;;1.00;1.00;;;;;12.76;62.98;99582.91;5056545;28;45329;-74
2022/04/07 00:32:49;;;;;;;;;0.00;0.00;;;;;12.78;62.70;99581.13;5057029;28;45315;-75
2022/04/07 00:35:16;;;;;;;;;0.00;0.00;;;;;12.79;62.73;99567.06;5056766;28;45562;-75
2022/04/07 00:37:42;;;;;;;;;1.00;1.00;;;;;12.20;62.35;99465.28;5042296;28;45397;-75
2022/04/07 00:40:10;;;;;;;;;2.00;1.00;;;;;12.74;62.35;99538.28;5036891;28;45264;-70
2022/04/07 00:42:50;;;;;;;;;1.00;1.00;;;;;12.75;62.65;99544.41;5037050;28;45227;-77
2022/04/07 00:45:18;;;;;;;;;4.00;1.00;;;;;12.61;62.49;99526.38;5031533;28;45526;-75
2022/04/07 00:47:45;;;;;;;;;1.25;1.00;;;;;12.72;62.43;99529.59;5034974;28;46644;-75
2022/04/07 00:50:13;;;;;;;;;1.00;1.00;;;;;12.66;62.16;99519.22;5035956;28;45480;-71
2022/04/07 00:52:49;;;;;;;;;3.00;1.00;;;;;12.44;62.81;99483.03;5035607;28;45682;-73
2022/04/07 00:55:15;;;;;;;;;1.00;1.00;;;;;12.76;61.96;99504.09;5038069;28;45354;-73
2022/04/07 00:57:42;;;;;;;;;1.00;0.50;;;;;12.76;61.88;99518.09;5034741;28;47014;-73
2022/04/07 01:00:11;;;;;;;;;2.00;1.00;;;;;12.65;61.72;99491.25;5036484;28;45429;-77
2022/04/07 01:02:37;;;;;;;;;1.25;1.00;;;;;12.29;61.88;99441.38;5038061;28;45395;-75
2022/04/07 01:05:04;;;;;;;;;2.00;0.00;;;;;12.02;61.86;99380.81;5040668;28;45470;-77
2022/04/07 01:07:32;;;;;;;;;4.50;1.25;;;;;12.19;62.10;99403.16;5072576;27;47067;-74
2022/04/07 01:09:59;;;;;;;;;1.00;1.00;;;;;12.63;62.13;99488.66;5040074;28;45571;-75
2022/04/07 01:12:25;;;;;;;;;2.00;1.25;;;;;12.26;62.33;99430.97;5038578;28;45456;-72
2022/04/07 01:14:59;;;;;;;;;2.25;1.00;;;;;12.63;61.96;99469.41;5039993;28;45412;-74
2022/04/07 01:17:26;;;;;;;;;1.00;1.00;;;;;12.52;62.72;99460.03;5039530;28;45974;-71
2022/04/07 01:19:51;;;;;;;;;2.00;1.00;;;;;12.57;62.55;99448.56;5047717;28;45370;-72
2022/04/07 01:22:19;;;;;;;;;2.25;2.25;;;;;12.56;62.52;99454.72;5059659;28;46084;-75
2022/04/07 01:24:46;;;;;;;;;1.50;1.50;;;;;12.39;62.79;99421.88;5060006;28;45388;-72
2022/04/07 01:27:13;;;;;;;;;1.00;1.00;;;;;12.20;63.20;99403.13;5064315;28;47736;-73
2022/04/07 01:29:39;;;;;;;;;1.25;1.00;;;;;12.46;62.46;99447.09;5040387;28;45537;-71
2022/04/07 01:32:10;;;;;;;;;3.00;0.75;;;;;12.54;62.93;99433.75;5054925;28;45311;-69
2022/04/07 01:34:36;;;;;;;;;3.25;1.50;;;;;12.45;62.75;99433.97;5035375;28;45488;-72
2022/04/07 01:37:02;;;;;;;;;1.00;1.00;;;;;12.34;62.79;99394.91;5019238;28;46194;-71
2022/04/07 01:39:28;;;;;;;;;2.50;2.00;;;;;12.50;62.94;99430.34;5019417;28;45433;-70
2022/04/07 01:41:54;;;;;;;;;4.00;1.00;;;;;12.45;63.27;99421.69;5019376;28;45453;-70
2022/04/07 01:44:23;;;;;;;;;2.00;2.00;;;;;12.51;63.31;99449.59;5019973;28;45322;-73
2022/04/07 01:46:51;;;;;;;;;1.00;1.00;;;;;12.47;63.44;99443.53;5034620;28;47496;-74
2022/04/07 01:49:21;;;;;;;;;0.50;0.50;;;;;12.49;63.43;99438.25;5039015;28;45425;-75
2022/04/07 01:51:48;;;;;;;;;0.50;0.50;;;;;12.43;64.03;99431.41;5037776;28;45752;-76
2022/04/07 01:54:14;;;;;;;;;1.50;1.00;;;;;12.39;64.13;99423.66;5039256;28;45445;-72
2022/04/07 01:56:42;;;;;;;;;0.00;0.00;;;;;12.39;64.50;99434.16;5039312;28;46253;-75
2022/04/07 01:59:09;;;;;;;;;2.00;1.00;;;;;12.29;65.66;99430.88;5045062;28;45263;-71
2022/04/07 02:01:35;;;;;;;;;2.25;1.00;;;;;12.28;66.05;99431.81;5057138;28;46008;-70
2022/04/07 02:04:05;;;;;;;;;1.50;1.00;;;;;12.28;66.79;99434.41;5059184;28;45515;-76
2022/04/07 02:06:31;;;;;;;;;1.00;1.00;;;;;11.96;66.76;99370.50;5049140;28;46501;-74
2022/04/07 02:08:56;;;;;;;;;0.50;0.50;;;;;12.16;66.67;99404.09;5038938;28;45273;-75
2022/04/07 02:11:22;;;;;;;;;1.00;1.00;;;;;12.10;66.81;99383.25;5038877;28;45353;-73
2022/04/07 02:13:49;;;;;;;;;2.00;0.25;;;;;12.35;66.51;99424.63;5038950;28;45429;-72
2022/04/07 02:16:15;;;;;;;;;1.25;1.00;;;;;12.28;66.56;99408.16;5053663;28;46608;-72
2022/04/07 02:18:41;;;;;;;;;1.75;1.00;;;;;12.30;66.73;99404.59;5058999;28;45422;-72
2022/04/07 02:21:07;;;;;;;;;0.75;0.75;;;;;12.21;67.07;99388.22;5058469;28;45444;-76
2022/04/07 02:23:42;;;;;;;;;1.00;1.00;;;;;12.22;67.18;99376.81;5039105;28;45536;-71
2022/04/07 02:26:12;;;;;;;;;3.50;0.50;;;;;12.36;66.69;99397.47;5038371;28;45319;-73
2022/04/07 02:28:38;;;;;;;;;1.00;1.00;;;;;12.38;66.80;99391.25;5038483;28;45555;-76
2022/04/07 02:31:05;;;;;;;;;3.75;1.00;;;;;12.25;66.49;99364.50;5038294;28;45461;-75
2022/04/07 02:33:30;;;;;;;;;1.25;1.00;;;;;12.36;67.40;99379.09;5038426;28;45363;-75
2022/04/07 02:35:56;;;;;;;;;2.00;0.75;;;;;12.27;67.17;99359.22;5038035;28;46077;-74
2022/04/07 02:38:21;;;;;;;;;2.00;1.00;;;;;12.21;67.76;99339.22;5038269;28;45461;-73
2022/04/07 02:40:47;;;;;;;;;1.00;1.00;;;;;12.13;67.32;99320.19;5038250;28;45276;-73
2022/04/07 02:43:13;;;;;;;;;2.00;0.75;;;;;12.40;67.24;99347.44;5037348;28;45493;-75
2022/04/07 02:45:38;;;;;;;;;2.50;1.00;;;;;12.39;67.34;99322.09;5038038;28;45362;-74
2022/04/07 02:48:04;;;;;;;;;1.50;1.00;;;;;12.39;68.00;99335.25;5038023;28;45512;-74
2022/04/07 02:50:29;;;;;;;;;1.00;1.00;;;;;12.15;68.16;99281.66;5048363;28;45330;-73
2022/04/07 02:52:55;;;;;;;;;1.25;1.25;;;;;12.34;68.49;99323.13;5059273;28;45365;-75
2022/04/07 02:55:22;;;;;;;;;0.00;0.00;;;;;12.15;68.74;99296.50;5058581;28;46357;-75
2022/04/07 02:57:47;;;;;;;;;1.00;1.00;;;;;12.11;68.98;99301.00;5074883;27;45354;-73
2022/04/07 03:00:13;;;;;;;;;1.25;1.25;;;;;12.17;68.76;99295.59;5059712;28;45564;-72
2022/04/07 03:02:39;;;;;;;;;0.75;0.75;;;;;12.21;68.98;99304.22;5060717;28;45567;-73
2022/04/07 03:05:06;;;;;;;;;0.75;0.00;;;;;12.06;69.38;99277.50;5062410;28;45284;-74
2022/04/07 03:07:31;;;;;;;;;3.00;2.00;;;;;12.19;69.20;99293.75;5062798;27;45524;-73
2022/04/07 03:09:57;;;;;;;;;3.00;2.00;;;;;12.16;69.26;99288.59;5062511;28;45421;-73
2022/04/07 03:12:22;;;;;;;;;1.00;1.00;;;;;11.98;69.55;99266.38;5050983;28;45272;-72
2022/04/07 03:14:48;;;;;;;;;1.25;1.00;;;;;11.87;69.88;99244.81;5042282;28;45454;-72
2022/04/07 03:17:14;;;;;;;;;2.00;2.00;;;;;12.07;69.48;99273.13;5042967;28;45377;-73
2022/04/07 03:19:39;;;;;;;;;2.00;0.75;;;;;11.96;70.20;99259.41;5042499;28;45314;-73
2022/04/07 03:22:12;;;;;;;;;2.75;1.00;;;;;12.08;70.19;99259.09;5042711;28;45429;-75
2022/04/07 03:24:38;;;;;;;;;1.50;1.50;;;;;12.00;69.96;99243.56;5041945;28;45445;-71
2022/04/07 03:27:07;;;;;;;;;1.50;1.50;;;;;12.07;70.31;99242.47;5042465;28;45359;-73
2022/04/07 03:29:34;;;;;;;;;0.75;0.75;;;;;12.01;70.34;99221.66;5042448;28;45317;-71
2022/04/07 03:32:00;;;;;;;;;1.50;1.00;;;;;12.19;70.27;99236.03;5042342;28;45513;-70
2022/04/07 03:34:25;;;;;;;;;0.50;0.50;;;;;12.23;70.64;99221.91;5041985;28;46310;-70
2022/04/07 03:36:51;;;;;;;;;4.00;1.00;;;;;12.24;70.28;99212.25;5042102;28;45591;-70
2022/04/07 03:39:16;;;;;;;;;2.75;1.75;;;;;12.26;70.50;99198.19;5043928;28;45397;-72
2022/04/07 03:41:42;;;;;;;;;1.00;0.50;;;;;12.27;70.43;99191.19;5060996;28;45347;-71
2022/04/07 03:44:09;;;;;;;;;1.50;1.50;;;;;12.32;70.10;99178.78;5058026;28;45396;-70
2022/04/07 03:46:36;;;;;;;;;1.50;1.50;;;;;12.35;70.31;99162.09;5058208;28;45490;-71
2022/04/07 03:49:02;;;;;;;;;3.50;1.00;;;;;12.18;70.37;99133.72;5060157;28;45543;-71
2022/04/07 03:51:28;;;;;;;;;1.50;1.00;;;;;12.32;70.60;99156.94;5062592;28;45408;-70
2022/04/07 03:53:54;;;;;;;;;2.00;1.00;;;;;12.14;70.81;99109.31;5059964;27;45611;-71
2022/04/07 03:56:23;;;;;;;;;2.25;1.75;;;;;12.11;70.44;99112.03;5057415;27;45386;-70
2022/04/07 03:58:49;;;;;;;;;2.00;2.00;;;;;12.18;70.61;99128.47;5077370;27;45491;-70
2022/04/07 04:01:15;;;;;;;;;4.00;2.00;;;;;11.93;70.90;99079.34;5060637;28;45288;-72
2022/04/07 04:03:40;;;;;;;;;4.00;2.00;;;;;11.98;71.19;99085.31;5061512;28;46425;-72
2022/04/07 04:06:06;;;;;;;;;2.25;1.25;;;;;11.93;70.82;99076.72;5060273;28;45623;-72
2022/04/07 04:08:31;;;;;;;;;2.00;2.00;;;;;12.15;70.84;99094.44;5046225;28;45269;-74
2022/04/07 04:10:57;;;;;;;;;1.00;1.00;;;;;12.15;71.43;99094.44;5038630;28;45259;-74
2022/04/07 04:13:23;;;;;;;;;2.00;2.00;;;;;12.21;71.56;99105.59;5040992;28;45880;-71
2022/04/07 04:15:50;;;;;;;;;3.00;3.00;;;;;12.19;71.04;99101.31;5042595;28;45255;-74
2022/04/07 04:18:15;;;;;;;;;2.00;2.00;;;;;12.19;71.54;99085.56;5038624;28;45742;-75
2022/04/07 04:20:44;;;;;;;;;2.00;2.00;;;;;12.00;71.55;99035.41;5041060;28;45449;-70
2022/04/07 04:23:10;;;;;;;;;2.00;1.00;;;;;12.03;71.48;99046.69;5035499;28;46710;-75
2022/04/07 04:25:36;;;;;;;;;4.50;1.25;;;;;11.94;71.59;99036.47;5037093;28;45387;-72
2022/04/07 04:28:01;;;;;;;;;1.00;1.00;;;;;12.12;71.38;99073.53;5037214;28;45754;-74
2022/04/07 04:30:27;;;;;;;;;1.50;1.00;;;;;12.03;71.07;99040.56;5037101;28;45522;-73
2022/04/07 04:32:52;;;;;;;;;2.25;2.00;;;;;12.26;71.08;99073.97;5069032;27;47129;-73
2022/04/07 04:35:18;;;;;;;;;3.75;3.00;;;;;12.29;71.28;99076.47;5037925;28;45350;-74
2022/04/07 04:37:44;;;;;;;;;4.00;3.00;;;;;12.02;71.63;99038.84;5057926;28;45760;-72
2022/04/07 04:40:10;;;;;;;;;1.75;1.50;;;;;12.34;71.31;99061.47;5060920;28;45283;-73
2022/04/07 04:42:35;;;;;;;;;2.25;1.75;;;;;12.37;71.56;99071.00;5060522;28;45405;-75
2022/04/07 04:45:01;;;;;;;;;4.50;2.25;;;;;12.37;71.48;99066.59;5060399;28;45596;-74
2022/04/07 04:47:27;;;;;;;;;2.00;2.00;;;;;12.42;71.27;99050.72;5077551;27;45737;-74
2022/04/07 04:49:52;;;;;;;;;4.00;2.00;;;;;12.40;70.89;99061.25;5060851;28;45355;-73
2022/04/07 04:52:19;;;;;;;;;3.25;3.00;;;;;12.29;70.71;99032.75;5033725;28;45449;-74
2022/04/07 04:54:45;;;;;;;;;3.00;2.00;;;;;12.44;71.02;99052.38;5024549;28;45465;-76
2022/04/07 04:57:10;;;;;;;;;2.75;2.75;;;;;12.35;70.60;99030.81;5020246;28;45472;-76
2022/04/07 04:59:36;;;;;;;;;2.00;2.00;;;;;12.21;70.96;98992.72;5054576;28;45413;-74
2022/04/07 05:02:04;;;;;;;;;1.00;1.00;;;;;12.54;71.05;99052.94;5075599;28;45563;-74
2022/04/07 05:04:29;;;;;;;;;3.00;1.75;;;;;12.50;70.98;99036.44;5060518;28;45295;-75
2022/04/07 05:06:55;;;;;;;;;2.25;1.00;;;;;12.56;70.62;99050.25;5053489;28;47015;-76
2022/04/07 05:09:23;;;;;;;;;1.25;1.25;;;;;12.39;70.97;99007.03;5059103;28;45616;-75
2022/04/07 05:11:49;;;;;;;;;0.75;0.00;;;;;12.60;70.52;99026.47;5059974;27;45436;-73
2022/04/07 05:14:14;;;;;;;;;1.00;1.00;;;;;12.61;70.55;99028.19;5059786;28;45441;-71
2022/04/07 05:16:40;;;;;;;;;3.00;1.00;;;;;12.54;70.34;99013.53;5059463;28;45509;-73
2022/04/07 05:19:05;;;;;;;;;1.00;0.25;;;;;12.55;71.02;99020.50;5060258;28;45523;-74
2022/04/07 05:21:31;;;;;;;;;1.00;1.00;;;;;12.52;70.25;99002.22;5048084;28;46057;-71
2022/04/07 05:23:57;;;;;;;;;2.00;2.00;;;;;12.62;70.56;99015.91;5040389;28;45453;-71
2022/04/07 05:26:22;;;;;;;;;2.00;2.00;;;;;12.62;70.54;99022.00;5037308;28;45632;-72
2022/04/07 05:28:48;;;;;;;;;2.50;1.00;;;;;12.41;70.22;98960.59;5028890;28;45441;-72
2022/04/07 05:31:13;;;;;;;;;1.00;1.00;;;;;12.67;70.26;99006.97;5019791;28;46255;-70
2022/04/07 05:33:39;;;;;;;;;2.00;2.00;;;;;12.69;69.63;98999.91;5035041;28;45461;-74
2022/04/07 05:36:04;;;;;;;;;1.75;1.00;;;;;12.71;69.67;98997.19;5039956;28;45341;-74
2022/04/07 05:38:30;;;;;;;;;0.50;0.00;;;;;12.69;69.65;98993.78;5059827;28;45440;-73
2022/04/07 05:40:55;;;;;;;;;2.00;1.00;;;;;12.55;69.52;98949.59;5047530;28;46048;-75
2022/04/07 05:43:21;;;;;;;;;0.50;0.50;;;;;12.74;69.18;98973.44;5039627;28;45493;-74
2022/04/07 05:45:47;;;;;;;;;1.00;0.50;;;;;12.70;69.22;98962.19;5039317;28;45412;-74
2022/04/07 05:48:12;;;;;;;;;1.75;1.00;;;;;12.78;69.12;98979.47;5038216;28;45298;-74
2022/04/07 05:50:39;;;;;;;;;1.00;1.00;;;;;12.76;69.07;98955.00;5045276;28;46400;-73
2022/04/07 05:53:06;;;;;;;;;3.00;1.00;;;;;12.83;69.00;98969.66;5059114;28;45480;-73
2022/04/07 05:55:33;;;;;;;;;3.50;1.25;;;;;12.83;69.11;98977.53;5059004;28;45413;-73
2022/04/07 05:58:06;;;;;;;;;2.50;1.00;;;;;12.85;68.63;98986.22;5048177;28;45589;-73
2022/04/07 06:00:33;;;;;;;;;1.00;1.00;;;;;12.87;68.57;98976.53;5029771;28;46219;-74
2022/04/07 06:03:02;;;;;;;;;2.00;2.00;;;;;12.63;68.81;98920.47;5038455;28;45579;-75
2022/04/07 06:05:27;;;;;;;;;5.25;2.00;;;;;12.74;68.19;98915.66;5038389;28;45473;-75
2022/04/07 06:08:01;;;;;;;;;2.00;2.00;;;;;12.88;68.20;98967.72;5039068;28;45533;-74
2022/04/07 06:10:27;;;;;;;;;3.75;2.00;;;;;12.83;68.29;98953.88;5038377;28;45305;-74
2022/04/07 06:12:54;;;;;;;;;3.50;2.00;;;;;12.79;68.11;98953.16;5039081;28;45528;-72
2022/04/07 06:15:20;;;;;;;;;2.75;1.00;;;;;12.75;67.75;98937.56;5042387;28;45383;-74
2022/04/07 06:18:00;;;;;;;;;3.00;1.25;;;;;12.68;67.73;98927.25;5044815;28;45405;-75
2022/04/07 06:20:26;;;;;;;;;3.67;1.33;;;;;12.98;67.09;98969.13;5038677;28;45293;-75
2022/04/07 06:22:52;;;;;;;;;2.00;1.00;;;;;12.95;67.33;98956.06;5054159;28;45361;-74
2022/04/07 06:25:18;;;;;;;;;3.00;1.00;;;;;12.96;67.56;98955.19;5038387;28;45391;-74
2022/04/07 06:27:45;;;;;;;;;3.00;2.00;;;;;12.94;67.39;98957.84;5038439;28;45412;-74
2022/04/07 06:30:14;;;;;;;;;3.25;1.00;;;;;12.49;67.85;98884.16;5038152;28;46065;-74
2022/04/07 06:32:41;;;;;;;;;1.25;1.25;;;;;12.98;67.20;98955.97;5029136;28;45376;-74
2022/04/07 06:35:08;;;;;;;;;2.00;1.00;;;;;12.97;67.26;98951.63;5038438;28;45390;-71
2022/04/07 06:37:54;;;;;;;;;1.25;1.25;;;;;12.97;67.52;98948.13;5036444;28;45527;-74
2022/04/07 06:40:27;;;;;;;;;4.25;2.00;;;;;12.97;67.50;98935.00;5053174;28;47305;-73
2022/04/07 06:42:55;;;;;;;;;1.25;1.25;;;;;12.97;67.84;98949.00;5037592;28;45346;-72
2022/04/07 06:45:22;;;;;;;;;4.00;1.00;;;;;12.94;68.05;98931.56;5037651;28;45649;-75
2022/04/07 06:47:48;;;;;;;;;2.25;1.25;;;;;12.97;67.85;98932.38;5037249;28;45504;-72
2022/04/07 06:50:15;;;;;;;;;3.00;1.50;;;;;12.96;67.92;98933.31;5038337;28;45600;-72
2022/04/07 06:52:42;;;;;;;;;1.25;1.25;;;;;12.98;68.31;98944.59;5041385;28;45428;-74
2022/04/07 06:55:10;;;;;;;;;2.50;1.00;;;;;12.90;68.51;98922.06;5037216;28;45292;-72
2022/04/07 06:58:01;;;;;;;;;1.75;1.00;;;;;12.86;68.62;98912.63;5029234;28;45564;-73
2022/04/07 07:00:32;;;;;;;;;1.75;1.00;;;;;13.02;68.12;98915.50;5018835;28;45572;-76
2022/04/07 07:03:00;;;;;;;;;4.00;2.00;;;;;12.42;68.48;98832.78;5018456;28;45401;-78
2022/04/07 07:05:29;;;;;;;;;4.00;1.00;;;;;13.02;68.76;98919.91;5018192;28;45473;-76
2022/04/07 07:08:27;;;;;;;;;3.00;1.25;;;;;13.01;68.80;98936.63;5011479;28;45746;-73
2022/04/07 07:11:31;;;;;;;;;1.00;1.00;;;;;13.01;69.03;98934.84;5029343;28;46133;-71
2022/04/07 07:14:00;;;;;;;;;1.00;1.00;;;;;12.90;68.70;98906.31;5038069;28;45370;-72
2022/04/07 07:16:33;;;;;;;;;1.75;1.00;;;;;12.92;68.98;98906.25;5038548;28;45394;-74
2022/04/07 07:19:06;;;;;;;;;1.00;1.00;;;;;13.03;68.66;98917.25;5040539;28;45545;-75
2022/04/07 07:21:38;;;;;;;;;0.50;0.50;;;;;13.03;68.79;98927.75;5036462;28;47854;-76
2022/04/07 07:24:04;;;;;;;;;1.00;1.00;;;;;12.04;69.06;98741.38;5039130;28;44781;-76
2022/04/07 07:26:32;;;;;;;;;2.00;0.50;;;;;13.07;68.64;98926.72;5050508;28;45441;-71
2022/04/07 07:29:03;;;;;;;;;0.75;0.75;;;;;12.92;69.28;98885.25;5033678;28;45952;-71
2022/04/07 07:31:30;;;;;;;;;1.67;0.00;;;;;12.49;69.11;98832.50;5032452;28;48114;-75
2022/04/07 07:34:03;;;;;;;;;1.00;1.00;;;;;12.90;69.72;98876.56;5034609;28;45801;-71
2022/04/07 07:36:30;;;;;;;;;1.00;0.00;;;;;12.92;69.43;98882.63;5033406;28;45325;-71
2022/04/07 07:38:56;;;;;;;;;2.00;0.33;;;;;12.56;69.81;98850.69;5031742;28;45544;-76
2022/04/07 07:41:25;;;;;;;;;0.00;0.00;;;;;13.06;69.80;98908.38;5048390;28;47241;-75
2022/04/07 07:43:55;;;;;;;;;0.00;0.00;;;;;13.15;69.29;98901.00;5013546;28;45347;-71
2022/04/07 07:46:29;;;;;;;;;1.00;1.00;;;;;13.14;69.58;98916.81;5024353;28;45749;-70
2022/04/07 07:48:55;;;;;;;;;0.00;0.00;;;;;12.82;69.77;98854.97;5033924;28;45524;-74
2022/04/07 07:51:20;;;;;;;;;0.00;0.00;;;;;13.14;70.08;98896.69;5033270;28;46087;-76
2022/04/07 07:53:46;;;;;;;;;0.00;0.00;;;;;12.91;69.92;98837.09;5033341;28;45513;-75
2022/04/07 07:56:11;;;;;;;;;0.00;0.00;;;;;12.97;69.86;98832.50;5033826;28;45413;-73
2022/04/07 07:58:37;;;;;;;;;2.00;0.00;;;;;13.19;69.62;98864.09;5034745;28;45527;-73
2022/04/07 08:01:03;;;;;;;;;1.00;1.00;;;;;13.15;70.17;98861.59;5047912;28;47774;-74
2022/04/07 08:03:28;;;;;;;;;0.00;0.00;;;;;13.24;70.21;98859.50;5032613;28;45457;-75
2022/04/07 08:05:54;;;;;;;;;0.00;0.00;;;;;13.16;70.25;98842.25;5033206;28;46432;-74
2022/04/07 08:08:19;;;;;;;;;0.00;0.00;;;;;13.43;69.87;98883.34;5033019;28;45557;-72
2022/04/07 08:10:45;;;;;;;;;0.00;0.00;;;;;13.37;70.02;98876.56;5032899;28;45527;-75
2022/04/07 08:13:11;;;;;;;;;0.00;0.00;;;;;13.43;69.58;98865.81;5032866;28;45437;-72
2022/04/07 08:15:36;;;;;;;;;0.00;0.00;;;;;13.46;70.09;98875.34;5034260;28;45971;-75
2022/04/07 08:18:03;;;;;;;;;0.00;0.00;;;;;13.52;69.92;98882.97;5034558;28;45592;-73
2022/04/07 08:20:28;;;;;;;;;0.00;0.00;;;;;13.46;69.96;98870.94;5034467;28;47944;-76
2022/04/07 08:22:56;;;;;;;;;0.00;0.00;;;;;13.34;69.94;98847.75;5037159;28;45728;-72
2022/04/07 08:25:21;;;;;;;;;0.00;0.00;;;;;13.66;69.90;98892.94;5052168;28;45442;-75
2022/04/07 08:27:47;;;;;;;;;1.00;0.00;;;;;13.40;68.99;98817.72;5051211;28;45459;-75
2022/04/07 08:30:13;;;;;;;;;0.33;0.00;;;;;13.86;68.94;98868.47;5037160;28;45969;-75
2022/04/07 08:32:39;;;;;;;;;0.00;0.00;;;;;13.95;68.55;98878.59;5043507;28;45549;-75
2022/04/07 08:35:05;;;;;;;;;0.00;0.00;;;;;13.95;68.51;98868.97;5038560;28;45525;-75
2022/04/07 08:37:31;;;;;;;;;1.00;0.00;;;;;13.99;68.07;98859.13;5054465;27;45583;-74
2022/04/07 08:39:57;;;;;;;;;0.00;0.00;;;;;14.18;68.12;98872.38;5018279;28;45835;-77
2022/04/07 08:42:23;;;;;;;;;0.67;0.00;;;;;14.04;68.04;98806.31;5019079;28;45655;-74
2022/04/07 08:44:49;;;;;;;;;0.00;0.00;;;;;14.35;67.78;98867.25;5020106;28;45440;-75
2022/04/07 08:47:20;;;;;;;;;1.00;0.00;;;;;14.23;67.25;98809.84;5053536;27;45419;-75
2022/04/07 08:49:48;;;;;;;;;0.00;0.00;;;;;14.61;66.81;98863.50;5036492;28;47844;-72
2022/04/07 08:52:15;;;;;;;;;0.00;0.00;;;;;14.43;66.27;98812.47;5036895;28;45319;-72
2022/04/07 08:54:42;;;;;;;;;0.00;0.00;;;;;14.63;66.13;98850.25;5036528;28;45613;-72
2022/04/07 08:57:09;;;;;;;;;0.00;0.00;;;;;14.75;66.23;98870.78;5036999;28;45710;-73
2022/04/07 08:59:35;;;;;;;;;0.00;0.00;;;;;14.72;65.77;98859.53;5035977;28;47124;-73
2022/04/07 09:02:05;;;;;;;;;0.00;0.00;;;;;14.83;65.68;98858.13;5051497;28;45238;-73
2022/04/07 09:04:37;;;;;;;;;0.00;0.00;;;;;14.68;65.73;98821.94;5060436;28;45434;-73
2022/04/07 09:07:05;;;;;;;;;0.00;0.00;;;;;14.94;65.31;98857.63;5062615;28;45458;-72
2022/04/07 09:09:32;;;;;;;;;0.00;0.00;;;;;14.97;65.54;98860.16;5056429;28;46298;-72
2022/04/07 09:11:59;;;;;;;;;0.00;0.00;;;;;15.01;65.13;98872.25;5057084;28;45443;-72
2022/04/07 09:14:26;;;;;;;;;0.00;0.00;;;;;15.05;65.00;98854.53;5057202;28;45429;-73
2022/04/07 09:16:55;;;;;;;;;0.00;0.00;;;;;15.10;65.11;98847.25;5048949;28;45438;-72
2022/04/07 09:19:24;;;;;;;;;0.00;0.00;;;;;14.91;65.00;98812.13;5056244;28;46169;-76
2022/04/07 09:22:10;;;;;;;;;0.00;0.00;;;;;15.08;64.69;98851.72;5036791;28;45480;-75
2022/04/07 09:24:41;;;;;;;;;0.00;0.00;;;;;15.23;64.73;98864.22;5039020;28;45668;-74
2022/04/07 09:27:12;;;;;;;;;1.67;0.00;;;;;15.25;65.05;98864.97;5040158;28;45238;-72
2022/04/07 09:29:43;;;;;;;;;0.00;0.00;;;;;15.26;64.74;98857.94;5040236;28;46140;-78
2022/04/07 09:32:20;;;;;;;;;0.00;0.00;;;;;15.26;65.31;98855.31;5051745;28;45463;-75
2022/04/07 09:34:57;;;;;;;;;0.00;0.00;;;;;15.30;65.17;98864.75;5061497;28;45285;-74
2022/04/07 09:37:28;;;;;;;;;0.00;0.00;;;;;15.12;64.88;98807.63;5061244;28;45222;-76
2022/04/07 09:40:16;;;;;;;;;0.00;0.00;;;;;15.45;64.29;98865.84;5062425;28;46753;-75
2022/04/07 09:42:42;;;;;;;;;0.00;0.00;;;;;15.51;63.69;98867.31;5063047;28;45318;-75
2022/04/07 09:45:12;;;;;;;;;0.00;0.00;;;;;15.54;63.89;98864.53;5039414;28;45497;-74
2022/04/07 09:47:49;;;;;;;;;0.00;0.00;;;;;15.55;63.34;98866.25;5055616;28;45741;-74
2022/04/07 09:50:34;;;;;;;;;0.33;0.00;;;;;15.57;63.41;98877.59;5038374;28;46080;-76
2022/04/07 09:53:04;;;;;;;;;0.00;0.00;;;;;15.21;63.09;98809.81;5045571;28;45472;-75
2022/04/07 09:55:35;;;;;;;;;0.00;0.00;;;;;15.46;62.54;98843.78;5061789;28;45451;-75
2022/04/07 09:58:11;;;;;;;;;0.00;0.00;;;;;15.60;62.79;98861.59;5045602;28;44960;-78
2022/04/07 10:00:37;;;;;;;;;0.33;0.00;;;;;15.23;62.02;98785.09;5058606;28;46379;-73
2022/04/07 10:03:05;;;;;;;;;0.00;0.00;;;;;15.68;61.89;98860.31;5063165;28;45281;-75
2022/04/07 10:05:31;;;;;;;;;0.00;0.00;;;;;15.78;61.67;98878.34;5061547;28;45443;-75
2022/04/07 10:07:57;;;;;;;;;0.67;0.00;;;;;15.77;61.94;98885.41;5059702;28;45449;-76
2022/04/07 10:10:24;;;;;;;;;1.00;0.00;;;;;15.72;62.29;98868.09;5059721;28;45435;-76
2022/04/07 10:12:51;;;;;;;;;0.00;0.00;;;;;15.87;61.96;98868.22;5075714;27;45531;-78
2022/04/07 10:15:17;;;;;;;;;0.00;0.00;;;;;15.86;61.86;98865.63;5057967;28;45294;-73
2022/04/07 10:17:44;;;;;;;;;0.00;0.00;;;;;15.94;61.46;98863.47;5024773;28;45430;-76
2022/04/07 10:20:14;;;;;;;;;0.00;0.00;;;;;15.79;62.97;98866.88;5031964;28;46266;-75
2022/04/07 10:23:00;;;;;;;;;1.00;0.00;;;;;15.84;63.86;98928.22;5038694;28;45340;-72
2022/04/07 10:25:28;;;;;;;;;1.00;0.00;;;;;14.87;65.06;98824.56;5054676;28;45451;-73
2022/04/07 10:27:57;;;;;;;;;0.00;0.00;;;;;15.59;65.00;98941.66;5037738;28;45567;-73
2022/04/07 10:30:23;;;;;;;;;0.00;0.00;;;;;15.56;64.74;98955.03;5038482;28;46039;-73
2022/04/07 10:32:54;;;;;;;;;0.00;0.00;;;;;15.49;64.82;98962.34;5054336;28;45548;-71
2022/04/07 10:35:37;;;;;;;;;0.00;0.00;;;;;15.48;65.12;98976.50;5050321;28;45449;-72
2022/04/07 10:38:07;;;;;;;;;0.67;0.67;;;;;15.41;65.11;98965.34;5039287;28;45426;-74
2022/04/07 10:40:44;;;;;;;;;1.00;1.00;;;;;15.44;65.10;98973.13;5038176;28;46131;-74
2022/04/07 10:43:21;;;;;;;;;0.00;0.00;;;;;15.46;65.32;98973.91;5038638;28;45871;-74
2022/04/07 10:46:05;;;;;;;;;0.00;0.00;;;;;15.56;64.56;98984.91;5038838;28;45267;-74
2022/04/07 10:48:35;;;;;;;;;3.00;0.00;;;;;15.67;64.10;98987.91;5038889;28;45362;-75
2022/04/07 10:51:08;;;;;;;;;1.00;1.00;;;;;15.73;64.09;98986.81;5039619;28;46124;-77
2022/04/07 10:53:53;;;;;;;;;0.00;0.00;;;;;15.96;63.98;98992.75;5049845;28;45552;-77
2022/04/07 10:56:31;;;;;;;;;0.00;0.00;;;;;16.19;63.22;98999.59;5058952;28;45441;-76
2022/04/07 10:59:20;;;;;;;;;1.67;0.00;;;;;16.47;60.74;99002.56;5057225;28;45813;-77
2022/04/07 11:01:46;;;;;;;;;0.00;0.00;;;;;16.65;59.08;99002.56;5058542;28;45925;-71
2022/04/07 11:04:20;;;;;;;;;0.00;0.00;;;;;16.77;58.26;98979.94;5039330;28;45504;-74
2022/04/07 11:07:17;;;;;;;;;0.00;0.00;;;;;16.85;57.09;99018.31;5046064;28;45508;-73
2022/04/07 11:10:00;;;;;;;;;0.00;0.00;;;;;16.96;56.82;98999.25;5038537;28;45693;-73
2022/04/07 11:12:43;;;;;;;;;0.33;0.33;;;;;16.96;59.29;98986.03;5036487;28;46666;-79
2022/04/07 11:15:28;;;;;;;;;29.25;28.25;;;;;17.22;55.37;98997.03;5038036;28;45246;-76
2022/04/07 11:18:02;;;;;;;;;109.33;101.00;;;;;17.22;55.51;98989.94;5070651;27;45512;-73
2022/04/07 11:20:28;;;;;;;;;214.25;193.75;;;;;17.32;55.70;99009.72;5040230;28;45425;-74
2022/04/07 11:23:07;;;;;;;;;97.33;86.33;;;;;17.50;54.92;99036.13;5037716;28;45347;-77
2022/04/07 11:25:40;;;;;;;;;43.75;38.25;;;;;17.57;53.96;99038.34;5038179;28;45694;-74
2022/04/07 11:28:10;;;;;;;;;73.50;60.75;;;;;17.61;53.82;99028.47;5038294;28;45557;-74
2022/04/07 11:30:38;;;;;;;;;12.00;11.00;;;;;17.60;52.83;99037.31;5018402;28;45437;-73
2022/04/07 11:33:27;;;;;;;;;4.33;3.33;;;;;17.59;52.43;99047.06;5017679;28;46212;-73
2022/04/07 11:35:59;;;;;;;;;22.75;20.25;;;;;17.52;51.86;99042.19;5048184;28;45830;-74
2022/04/07 11:38:29;;;;;;;;;18.33;15.33;;;;;17.28;52.42;99031.97;5036696;28;45492;-73